Details From KCRW - Charleston Yeager
To KLYH - LYNCHBURG RGNL PRESTON GLENN FLD
Flight Number -
Tags decoded
Created
Modified
Stats Distance 130 nm / 240 km
Max Altitude 0 ft / 0 m
Waypoints 2
Social Downloads 2
Likes 0
Share VATSIM

Download

Looking for another format? Having issues loading an existing format? Contact us
Advertisement - Login to hide

Notes

Requested: KCRW KLYH

Route

KCRW KLYH

ID Type Via Altitude Latitude Longitude Leg Dist Tot Dist Heading (true) Name
O KCRW APT - 0 ft / 0 m 38.37277˚ -81.59312˚ - 0 nm - Charleston Yeager
O KLYH APT - 0 ft / 0 m 37.32733˚ -79.20014˚ 129 nm 129 nm 118° / 120° LYNCHBURG RGNL PRESTON GLENN FLD

Altitude Profile

Advertisement - Login to hide

KCRW

Details ICAO KCRW (CRW)
Name Charleston Yeager
Region United States
Timezone America/New_York (UTC-5.0)
Stats Elevation 981 ft / 299 m (AMSL)
Location 38.372770° -81.593115°
Runways 2
Magnetic Variation 7.807° W

METAR

KCRW 180654Z 00000KT 10SM OVC023 04/03 A3012 RMK AO2 SLP203 T00440028

Decode

TAF

KCRW 180525Z 1806/1906 00000KT P6SM -DZ OVC025 FM181200 22003KT P6SM -DZ OVC010 FM190000 23005KT P6SM -DZ OVC020 FM190300 23006KT P6SM OVC020

Decode

Departure Runways

ID Width Length Bearing (true) Bearing (mag) Surface Threshold Offset Overrun Length
05 150 ft / 46 m 6,300 ft / 1,920 m 47.01° 54.82° Asphalt 0 ft / 0 m 200 ft / 61 m
15 150 ft / 46 m 4,753 ft / 1,449 m 141.48° 149.29° Asphalt 0 ft / 0 m 0 ft / 0 m
23 150 ft / 46 m 6,300 ft / 1,920 m 227.02° 234.83° Asphalt 0 ft / 0 m 200 ft / 61 m
33 150 ft / 46 m 4,753 ft / 1,449 m 321.49° 329.30° Asphalt 0 ft / 0 m 0 ft / 0 m

KLYH

Details ICAO KLYH (LYH)
Name LYNCHBURG RGNL PRESTON GLENN FLD
Region United States
Timezone America/New_York (UTC-5.0)
Stats Elevation 938 ft / 286 m (AMSL)
Location 37.327327° -79.200143°
Runways 2
Magnetic Variation 9.193° W

METAR

KLYH 180654Z AUTO 22003KT 10SM SCT043 03/01 A3012 RMK AO2 SLP202 T00330011

Decode

TAF

TAF KLYH 180520Z 1806/1906 VRB03KT P6SM BKN070 TEMPO 1809/1812 OVC030 FM181200 VRB03KT P6SM SCT070

Decode

Destination Runways

ID Width Length Bearing (true) Bearing (mag) Surface Threshold Offset Overrun Length
04 151 ft / 46 m 5,803 ft / 1,769 m 27.78° 36.97° Asphalt 171 ft / 52 m 0 ft / 0 m
17 135 ft / 41 m 3,636 ft / 1,108 m 161.06° 170.25° Asphalt 0 ft / 0 m 164 ft / 50 m
22 151 ft / 46 m 5,803 ft / 1,769 m 207.79° 216.98° Asphalt 177 ft / 54 m 0 ft / 0 m
35 135 ft / 41 m 3,636 ft / 1,108 m 341.06° 350.25° Asphalt 0 ft / 0 m 197 ft / 60 m

Approach Navaids

Runway Type Ident Frequency Range Bearing (true) Bearing (mag) Slope Elevation
04 Localiser ILYH 110.10 MHz 18 nm / 33 km 27.72° 36.91° - 938 ft / 286 m (AMSL)
04 Glidescope ILYH 110.10 MHz 10 nm / 19 km 27.79° 36.98° 3.00° 901 ft / 275 m (AMSL)